sensor_id;sensor_type;location;lat;lon;timestamp;pressure;altitude;pressure_sealevel;temperature;humidity
43818;BME280;29868;47.360;18.984;2022-09-09T00:00:58;100020.16;;;18.46;100.00
43818;BME280;29868;47.360;18.984;2022-09-09T00:03:37;100023.63;;;18.46;100.00
43818;BME280;29868;47.360;18.984;2022-09-09T00:06:24;100012.31;;;18.43;100.00
43818;BME280;29868;47.360;18.984;2022-09-09T00:11:51;100009.63;;;18.46;100.00
43818;BME280;29868;47.360;18.984;2022-09-09T00:17:10;100027.47;;;18.32;100.00
43818;BME280;29868;47.360;18.984;2022-09-09T00:19:43;100028.47;;;18.24;100.00
43818;BME280;29868;47.360;18.984;2022-09-09T00:22:22;100018.59;;;18.37;100.00
43818;BME280;29868;47.360;18.984;2022-09-09T00:24:55;100009.91;;;18.34;100.00
43818;BME280;29868;47.360;18.984;2022-09-09T00:27:30;100009.47;;;18.12;100.00
43818;BME280;29868;47.360;18.984;2022-09-09T00:30:17;100005.84;;;18.17;100.00
43818;BME280;29868;47.360;18.984;2022-09-09T00:32:46;100010.41;;;18.09;100.00
43818;BME280;29868;47.360;18.984;2022-09-09T00:35:17;100012.97;;;18.12;100.00
43818;BME280;29868;47.360;18.984;2022-09-09T00:37:45;100020.63;;;18.23;100.00
43818;BME280;29868;47.360;18.984;2022-09-09T00:40:33;100014.53;;;18.22;100.00
43818;BME280;29868;47.360;18.984;2022-09-09T00:43:36;100025.84;;;18.26;100.00
43818;BME280;29868;47.360;18.984;2022-09-09T00:46:49;100026.88;;;18.19;100.00
43818;BME280;29868;47.360;18.984;2022-09-09T00:57:29;100042.16;;;17.98;100.00
43818;BME280;29868;47.360;18.984;2022-09-09T01:11:01;100071.06;;;18.00;100.00
43818;BME280;29868;47.360;18.984;2022-09-09T01:13:35;100067.53;;;18.01;100.00
43818;BME280;29868;47.360;18.984;2022-09-09T01:16:03;100064.78;;;18.07;100.00
43818;BME280;29868;47.360;18.984;2022-09-09T01:18:32;100069.16;;;18.07;100.00
43818;BME280;29868;47.360;18.984;2022-09-09T01:21:20;100067.63;;;17.95;100.00
43818;BME280;29868;47.360;18.984;2022-09-09T01:26:21;100060.06;;;17.78;100.00
43818;BME280;29868;47.360;18.984;2022-09-09T01:28:50;100064.38;;;17.82;100.00
43818;BME280;29868;47.360;18.984;2022-09-09T01:31:24;100065.38;;;17.73;100.00
43818;BME280;29868;47.360;18.984;2022-09-09T01:33:51;100065.38;;;17.73;100.00
43818;BME280;29868;47.360;18.984;2022-09-09T01:36:28;100060.97;;;17.77;100.00
43818;BME280;29868;47.360;18.984;2022-09-09T01:38:57;100060.03;;;17.80;100.00
43818;BME280;29868;47.360;18.984;2022-09-09T01:41:22;100060.03;;;17.80;100.00
43818;BME280;29868;47.360;18.984;2022-09-09T01:43:48;100053.09;;;17.75;100.00
43818;BME280;29868;47.360;18.984;2022-09-09T01:46:14;100052.25;;;17.75;100.00
43818;BME280;29868;47.360;18.984;2022-09-09T01:48:41;100069.59;;;17.84;100.00
43818;BME280;29868;47.360;18.984;2022-09-09T01:51:08;100061.91;;;17.71;100.00
43818;BME280;29868;47.360;18.984;2022-09-09T01:53:35;100056.50;;;17.82;100.00
43818;BME280;29868;47.360;18.984;2022-09-09T01:56:02;100048.81;;;17.70;100.00
43818;BME280;29868;47.360;18.984;2022-09-09T02:04:47;100062.00;;;17.67;100.00
43818;BME280;29868;47.360;18.984;2022-09-09T02:07:40;100069.59;;;17.84;100.00
43818;BME280;29868;47.360;18.984;2022-09-09T02:10:12;100076.75;;;17.74;100.00
43818;BME280;29868;47.360;18.984;2022-09-09T02:12:49;100070.78;;;17.66;100.00
43818;BME280;29868;47.360;18.984;2022-09-09T02:15:30;100067.13;;;17.74;100.00
43818;BME280;29868;47.360;18.984;2022-09-09T02:17:58;100070.75;;;17.67;100.00
43818;BME280;29868;47.360;18.984;2022-09-09T02:20:27;100060.28;;;17.64;100.00
43818;BME280;29868;47.360;18.984;2022-09-09T02:22:57;100060.38;;;17.60;100.00
43818;BME280;29868;47.360;18.984;2022-09-09T02:25:26;100060.19;;;17.70;100.00
43818;BME280;29868;47.360;18.984;2022-09-09T02:27:53;100058.31;;;17.79;100.00
43818;BME280;29868;47.360;18.984;2022-09-09T02:30:19;100053.97;;;17.78;100.00
43818;BME280;29868;47.360;18.984;2022-09-09T02:32:47;100061.78;;;17.81;100.00
43818;BME280;29868;47.360;18.984;2022-09-09T02:35:17;100062.66;;;17.80;100.00
43818;BME280;29868;47.360;18.984;2022-09-09T02:37:45;100069.75;;;17.74;100.00
43818;BME280;29868;47.360;18.984;2022-09-09T02:40:12;100064.41;;;17.81;100.00
43818;BME280;29868;47.360;18.984;2022-09-09T02:42:45;100070.59;;;17.78;100.00
43818;BME280;29868;47.360;18.984;2022-09-09T02:45:12;100068.88;;;17.72;100.00
43818;BME280;29868;47.360;18.984;2022-09-09T02:53:18;100080.81;;;17.93;100.00
43818;BME280;29868;47.360;18.984;2022-09-09T02:55:57;100076.78;;;17.72;100.00
43818;BME280;29868;47.360;18.984;2022-09-09T02:58:23;100071.78;;;17.57;100.00
43818;BME280;29868;47.360;18.984;2022-09-09T03:00:50;100085.13;;;17.45;100.00
43818;BME280;29868;47.360;18.984;2022-09-09T03:03:16;100082.63;;;17.39;100.00
43818;BME280;29868;47.360;18.984;2022-09-09T03:05:43;100089.63;;;17.40;100.00
43818;BME280;29868;47.360;18.984;2022-09-09T03:08:10;100089.69;;;17.34;100.00
43818;BME280;29868;47.360;18.984;2022-09-09T03:10:35;100091.28;;;17.42;100.00
43818;BME280;29868;47.360;18.984;2022-09-09T03:13:02;100092.44;;;17.27;100.00
43818;BME280;29868;47.360;18.984;2022-09-09T03:15:33;100088.06;;;17.26;100.00
43818;BME280;29868;47.360;18.984;2022-09-09T03:18:00;100081.13;;;17.24;100.00
43818;BME280;29868;47.360;18.984;2022-09-09T03:20:26;100084.75;;;17.15;100.00
43818;BME280;29868;47.360;18.984;2022-09-09T03:22:53;100085.44;;;17.26;100.00
43818;BME280;29868;47.360;18.984;2022-09-09T03:25:19;100087.25;;;17.23;100.00
43818;BME280;29868;47.360;18.984;2022-09-09T03:27:44;100083.06;;;17.11;100.00
43818;BME280;29868;47.360;18.984;2022-09-09T03:30:10;100084.00;;;17.09;100.00
43818;BME280;29868;47.360;18.984;2022-09-09T03:32:36;100076.09;;;17.10;100.00
43818;BME280;29868;47.360;18.984;2022-09-09T03:35:02;100079.56;;;17.12;100.00
43818;BME280;29868;47.360;18.984;2022-09-09T03:37:27;100079.50;;;17.15;100.00
43818;BME280;29868;47.360;18.984;2022-09-09T03:39:53;100079.59;;;17.09;100.00
43818;BME280;29868;47.360;18.984;2022-09-09T03:42:20;100085.56;;;17.19;100.00
43818;BME280;29868;47.360;18.984;2022-09-09T03:44:46;100082.94;;;17.19;100.00
43818;BME280;29868;47.360;18.984;2022-09-09T03:47:19;100088.97;;;17.25;100.00
43818;BME280;29868;47.360;18.984;2022-09-09T03:49:47;100088.06;;;17.26;100.00
43818;BME280;29868;47.360;18.984;2022-09-09T03:52:13;100084.63;;;17.23;100.00
43818;BME280;29868;47.360;18.984;2022-09-09T03:54:39;100087.97;;;17.31;100.00
43818;BME280;29868;47.360;18.984;2022-09-09T03:57:04;100098.47;;;17.31;100.00
43818;BME280;29868;47.360;18.984;2022-09-09T03:59:30;100090.66;;;17.30;100.00
43818;BME280;29868;47.360;18.984;2022-09-09T04:01:55;100101.06;;;17.36;100.00
43818;BME280;29868;47.360;18.984;2022-09-09T04:04:22;100099.41;;;17.29;100.00
43818;BME280;29868;47.360;18.984;2022-09-09T04:06:47;100093.19;;;17.34;100.00
43818;BME280;29868;47.360;18.984;2022-09-09T04:09:14;100089.75;;;17.32;100.00
43818;BME280;29868;47.360;18.984;2022-09-09T04:11:39;100091.38;;;17.38;100.00
43818;BME280;29868;47.360;18.984;2022-09-09T04:14:04;100090.56;;;17.36;100.00
43818;BME280;29868;47.360;18.984;2022-09-09T04:16:32;100091.50;;;17.32;100.00
43818;BME280;29868;47.360;18.984;2022-09-09T04:18:58;100093.31;;;17.28;100.00
43818;BME280;29868;47.360;18.984;2022-09-09T04:21:24;100094.13;;;17.32;100.00
43818;BME280;29868;47.360;18.984;2022-09-09T04:23:50;100104.47;;;17.41;100.00
43818;BME280;29868;47.360;18.984;2022-09-09T04:26:16;100100.13;;;17.40;100.00
43818;BME280;29868;47.360;18.984;2022-09-09T04:28:42;100103.41;;;17.52;100.00
43818;BME280;29868;47.360;18.984;2022-09-09T04:31:21;100098.31;;;17.42;100.00
43818;BME280;29868;47.360;18.984;2022-09-09T04:33:49;100097.44;;;17.43;100.00
43818;BME280;29868;47.360;18.984;2022-09-09T04:36:14;100099.22;;;17.41;100.00
43818;BME280;29868;47.360;18.984;2022-09-09T04:38:40;100091.38;;;17.38;100.00
43818;BME280;29868;47.360;18.984;2022-09-09T04:41:06;100089.75;;;17.32;100.00
43818;BME280;29868;47.360;18.984;2022-09-09T04:43:32;100089.75;;;17.32;100.00
43818;BME280;29868;47.360;18.984;2022-09-09T04:45:58;100088.75;;;17.38;100.00
43818;BME280;29868;47.360;18.984;2022-09-09T04:48:24;100089.63;;;17.38;100.00
43818;BME280;29868;47.360;18.984;2022-09-09T04:51:01;100088.06;;;17.26;100.00
43818;BME280;29868;47.360;18.984;2022-09-09T04:53:28;100092.38;;;17.31;100.00
43818;BME280;29868;47.360;18.984;2022-09-09T04:56:04;100092.19;;;17.43;100.00
43818;BME280;29868;47.360;18.984;2022-09-09T04:58:31;100088.66;;;17.44;100.00
43818;BME280;29868;47.360;18.984;2022-09-09T05:01:06;100086.81;;;17.49;100.00
43818;BME280;29868;47.360;18.984;2022-09-09T05:03:32;100091.06;;;17.56;100.00
43818;BME280;29868;47.360;18.984;2022-09-09T05:06:11;100096.38;;;17.55;100.00
43818;BME280;29868;47.360;18.984;2022-09-09T05:08:37;100104.03;;;17.67;100.00
43818;BME280;29868;47.360;18.984;2022-09-09T05:11:14;100099.59;;;17.69;100.00
43818;BME280;29868;47.360;18.984;2022-09-09T05:13:41;100107.28;;;17.83;100.00
43818;BME280;29868;47.360;18.984;2022-09-09T05:16:06;100114.13;;;17.91;100.00
43818;BME280;29868;47.360;18.984;2022-09-09T05:18:31;100108.63;;;18.05;100.00
43818;BME280;29868;47.360;18.984;2022-09-09T05:21:00;100116.31;;;18.14;100.00
43818;BME280;29868;47.360;18.984;2022-09-09T05:23:25;100105.66;;;18.22;100.00
43818;BME280;29868;47.360;18.984;2022-09-09T05:25:57;100115.97;;;18.76;100.00
43818;BME280;29868;47.360;18.984;2022-09-09T05:28:24;100123.25;;;18.62;100.00
43818;BME280;29868;47.360;18.984;2022-09-09T05:31:01;100119.94;;;19.33;100.00
43818;BME280;29868;47.360;18.984;2022-09-09T05:33:30;100122.13;;;19.51;100.00
43818;BME280;29868;47.360;18.984;2022-09-09T05:36:07;100120.97;;;19.61;100.00
43818;BME280;29868;47.360;18.984;2022-09-09T05:38:33;100126.94;;;19.34;100.00
43818;BME280;29868;47.360;18.984;2022-09-09T05:41:00;100131.59;;;19.92;100.00
43818;BME280;29868;47.360;18.984;2022-09-09T05:43:26;100130.09;;;20.48;100.00
43818;BME280;29868;47.360;18.984;2022-09-09T05:46:00;100128.72;;;21.78;100.00
43818;BME280;29868;47.360;18.984;2022-09-09T05:48:37;100137.88;;;22.44;100.00
43818;BME280;29868;47.360;18.984;2022-09-09T05:51:03;100137.75;;;22.24;100.00
43818;BME280;29868;47.360;18.984;2022-09-09T05:53:30;100131.41;;;22.98;100.00
43818;BME280;29868;47.360;18.984;2022-09-09T05:56:02;100132.47;;;23.60;100.00
43818;BME280;29868;47.360;18.984;2022-09-09T05:58:32;100137.69;;;24.45;100.00
43818;BME280;29868;47.360;18.984;2022-09-09T06:01:08;100149.31;;;25.90;100.00
43818;BME280;29868;47.360;18.984;2022-09-09T06:03:36;100149.56;;;24.94;100.00
43818;BME280;29868;47.360;18.984;2022-09-09T06:06:04;100139.25;;;23.67;100.00
43818;BME280;29868;47.360;18.984;2022-09-09T06:08:31;100135.13;;;23.38;100.00
43818;BME280;29868;47.360;18.984;2022-09-09T06:11:12;100140.50;;;22.68;100.00
43818;BME280;29868;47.360;18.984;2022-09-09T06:13:38;100133.50;;;22.18;100.00
43818;BME280;29868;47.360;18.984;2022-09-09T06:16:04;100133.59;;;21.90;100.00
43818;BME280;29868;47.360;18.984;2022-09-09T06:18:30;100128.09;;;21.43;100.00
43818;BME280;29868;47.360;18.984;2022-09-09T06:21:04;100132.38;;;21.74;100.00
43818;BME280;29868;47.360;18.984;2022-09-09T06:23:30;100134.16;;;21.47;100.00
43818;BME280;29868;47.360;18.984;2022-09-09T06:28:31;100129.69;;;21.21;100.00
43818;BME280;29868;47.360;18.984;2022-09-09T06:31:05;100122.63;;;20.93;100.00
43818;BME280;29868;47.360;18.984;2022-09-09T06:33:34;100132.81;;;21.05;100.00
43818;BME280;29868;47.360;18.984;2022-09-09T06:36:00;100127.44;;;21.08;100.00
43818;BME280;29868;47.360;18.984;2022-09-09T06:38:26;100123.75;;;21.14;100.00
43818;BME280;29868;47.360;18.984;2022-09-09T06:40:58;100124.59;;;20.86;100.00
43818;BME280;29868;47.360;18.984;2022-09-09T06:43:25;100140.00;;;21.00;100.00
43818;BME280;29868;47.360;18.984;2022-09-09T06:48:23;100138.00;;;20.79;100.00
43818;BME280;29868;47.360;18.984;2022-09-09T06:51:00;100149.88;;;20.94;100.00
43818;BME280;29868;47.360;18.984;2022-09-09T06:53:26;100143.09;;;21.14;100.00
43818;BME280;29868;47.360;18.984;2022-09-09T06:55:52;100149.28;;;21.13;100.00
43818;BME280;29868;47.360;18.984;2022-09-09T06:58:18;100145.31;;;21.56;100.00
43818;BME280;29868;47.360;18.984;2022-09-09T07:00:44;100145.91;;;21.65;100.00
43818;BME280;29868;47.360;18.984;2022-09-09T07:03:10;100154.34;;;21.76;100.00
43818;BME280;29868;47.360;18.984;2022-09-09T07:05:35;100153.69;;;21.43;100.00
43818;BME280;29868;47.360;18.984;2022-09-09T07:08:01;100161.03;;;21.31;100.00
43818;BME280;29868;47.360;18.984;2022-09-09T07:10:27;100155.63;;;21.08;100.00
43818;BME280;29868;47.360;18.984;2022-09-09T07:12:53;100160.22;;;20.72;100.00
43818;BME280;29868;47.360;18.984;2022-09-09T07:15:18;100161.50;;;20.58;100.00
43818;BME280;29868;47.360;18.984;2022-09-09T07:17:44;100165.94;;;20.87;100.00
43818;BME280;29868;47.360;18.984;2022-09-09T07:20:11;100158.75;;;21.21;100.00
43818;BME280;29868;47.360;18.984;2022-09-09T07:22:37;100150.00;;;21.48;100.00
43818;BME280;29868;47.360;18.984;2022-09-09T07:25:03;100158.75;;;21.21;100.00
43818;BME280;29868;47.360;18.984;2022-09-09T07:27:29;100150.00;;;21.19;100.00
43818;BME280;29868;47.360;18.984;2022-09-09T07:29:55;100157.69;;;21.54;100.00
43818;BME280;29868;47.360;18.984;2022-09-09T07:32:20;100162.13;;;21.26;100.00
43818;BME280;29868;47.360;18.984;2022-09-09T07:34:46;100155.41;;;21.44;100.00
43818;BME280;29868;47.360;18.984;2022-09-09T07:37:12;100158.63;;;21.80;100.00
43818;BME280;29868;47.360;18.984;2022-09-09T07:39:38;100170.06;;;21.80;100.00
43818;BME280;29868;47.360;18.984;2022-09-09T07:42:04;100166.34;;;21.59;100.00
43818;BME280;29868;47.360;18.984;2022-09-09T07:44:30;100170.06;;;21.80;100.00
43818;BME280;29868;47.360;18.984;2022-09-09T07:46:57;100165.50;;;22.10;100.00
43818;BME280;29868;47.360;18.984;2022-09-09T07:49:22;100161.13;;;22.09;100.00
43818;BME280;29868;47.360;18.984;2022-09-09T07:51:48;100162.72;;;22.15;100.00
43818;BME280;29868;47.360;18.984;2022-09-09T07:54:16;100169.78;;;22.40;100.00
43818;BME280;29868;47.360;18.984;2022-09-09T07:56:45;100175.59;;;22.49;100.00
43818;BME280;29868;47.360;18.984;2022-09-09T07:59:10;100176.66;;;22.69;100.00
43818;BME280;29868;47.360;18.984;2022-09-09T08:01:48;100168.38;;;22.78;100.00
43818;BME280;29868;47.360;18.984;2022-09-09T08:04:16;100163.88;;;22.56;100.00
43818;BME280;29868;47.360;18.984;2022-09-09T08:06:48;100167.91;;;22.90;100.00
43818;BME280;29868;47.360;18.984;2022-09-09T08:09:14;100174.69;;;23.21;100.00
43818;BME280;29868;47.360;18.984;2022-09-09T08:11:40;100164.97;;;23.43;100.00
43818;BME280;29868;47.360;18.984;2022-09-09T08:14:07;100177.53;;;23.16;100.00
43818;BME280;29868;47.360;18.984;2022-09-09T08:16:35;100169.25;;;23.02;100.00
43818;BME280;29868;47.360;18.984;2022-09-09T08:19:02;100173.31;;;22.87;100.00
43818;BME280;29868;47.360;18.984;2022-09-09T08:21:31;100178.50;;;23.14;100.00
43818;BME280;29868;47.360;18.984;2022-09-09T08:23:58;100178.28;;;23.20;100.00
43818;BME280;29868;47.360;18.984;2022-09-09T08:26:26;100178.50;;;23.14;100.00
43818;BME280;29868;47.360;18.984;2022-09-09T08:28:55;100177.59;;;23.37;100.00
43818;BME280;29868;47.360;18.984;2022-09-09T08:31:27;100176.28;;;23.25;100.00
43818;BME280;29868;47.360;18.984;2022-09-09T08:33:56;100182.53;;;23.46;100.00
43818;BME280;29868;47.360;18.984;2022-09-09T08:36:24;100178.75;;;23.51;100.00
43818;BME280;29868;47.360;18.984;2022-09-09T08:38:52;100169.19;;;23.91;100.00
43818;BME280;29868;47.360;18.984;2022-09-09T08:52:44;100187.78;;;24.32;100.00
43818;BME280;29868;47.360;18.984;2022-09-09T08:57:39;100186.97;;;24.50;100.00
43818;BME280;29868;47.360;18.984;2022-09-09T09:00:09;100184.25;;;24.11;100.00
43818;BME280;29868;47.360;18.984;2022-09-09T09:02:48;100184.28;;;24.52;100.00
43818;BME280;29868;47.360;18.984;2022-09-09T09:05:32;100178.97;;;24.52;100.00
43818;BME280;29868;47.360;18.984;2022-09-09T09:10:47;100167.53;;;24.89;100.00
43818;BME280;29868;47.360;18.984;2022-09-09T09:13:16;100170.22;;;25.07;100.00
43818;BME280;29868;47.360;18.984;2022-09-09T09:15:44;100168.25;;;25.31;100.00
43818;BME280;29868;47.360;18.984;2022-09-09T09:18:12;100161.94;;;25.51;100.00
43818;BME280;29868;47.360;18.984;2022-09-09T09:23:33;100163.63;;;25.34;100.00
43818;BME280;29868;47.360;18.984;2022-09-09T09:26:07;100155.63;;;25.34;100.00
43818;BME280;29868;47.360;18.984;2022-09-09T09:28:35;100150.78;;;25.61;100.00
43818;BME280;29868;47.360;18.984;2022-09-09T09:31:05;100159.66;;;25.79;100.00
43818;BME280;29868;47.360;18.984;2022-09-09T09:33:49;100151.00;;;25.74;100.00
43818;BME280;29868;47.360;18.984;2022-09-09T09:36:16;100147.59;;;25.89;100.00
43818;BME280;29868;47.360;18.984;2022-09-09T09:38:56;100154.63;;;25.73;100.00
43818;BME280;29868;47.360;18.984;2022-09-09T09:43:59;100149.16;;;25.76;100.00
43818;BME280;29868;47.360;18.984;2022-09-09T09:46:26;100147.28;;;26.13;100.00
43818;BME280;29868;47.360;18.984;2022-09-09T09:49:04;100156.59;;;25.87;100.00
43818;BME280;29868;47.360;18.984;2022-09-09T09:51:32;100151.59;;;25.81;84.17
43818;BME280;29868;47.360;18.984;2022-09-09T09:56:39;100141.56;;;25.68;83.15
43818;BME280;29868;47.360;18.984;2022-09-09T09:59:17;100149.22;;;25.75;84.16
43818;BME280;29868;47.360;18.984;2022-09-09T10:01:44;100155.47;;;25.73;81.10
43818;BME280;29868;47.360;18.984;2022-09-09T10:04:21;100159.25;;;25.87;81.37
43818;BME280;29868;47.360;18.984;2022-09-09T10:06:49;100154.34;;;26.14;80.98
43818;BME280;29868;47.360;18.984;2022-09-09T10:09:29;100153.72;;;25.91;80.12
43818;BME280;29868;47.360;18.984;2022-09-09T10:15:12;100148.78;;;26.18;68.93
43818;BME280;29868;47.360;18.984;2022-09-09T10:18:00;100135.06;;;26.09;69.28
43818;BME280;29868;47.360;18.984;2022-09-09T10:25:57;100150.13;;;26.43;62.39
43818;BME280;29868;47.360;18.984;2022-09-09T10:34:03;100147.63;;;26.57;59.87
43818;BME280;29868;47.360;18.984;2022-09-09T10:36:32;100150.19;;;26.59;58.13
43818;BME280;29868;47.360;18.984;2022-09-09T10:39:06;100136.22;;;26.38;56.02
43818;BME280;29868;47.360;18.984;2022-09-09T10:41:57;100142.16;;;26.76;56.95
43818;BME280;29868;47.360;18.984;2022-09-09T10:57:50;100129.69;;;26.92;55.26
43818;BME280;29868;47.360;18.984;2022-09-09T11:02:56;100132.34;;;26.92;53.91
43818;BME280;29868;47.360;18.984;2022-09-09T11:05:30;100137.59;;;26.78;52.34
43818;BME280;29868;47.360;18.984;2022-09-09T11:08:08;100129.59;;;26.78;50.91
43818;BME280;29868;47.360;18.984;2022-09-09T11:10:44;100136.91;;;27.06;52.58
43818;BME280;29868;47.360;18.984;2022-09-09T11:13:26;100139.94;;;27.16;48.16
43818;BME280;29868;47.360;18.984;2022-09-09T11:16:04;100138.22;;;27.15;51.12
43818;BME280;29868;47.360;18.984;2022-09-09T11:18:39;100130.50;;;27.56;51.21
43818;BME280;29868;47.360;18.984;2022-09-09T11:21:17;100141.50;;;27.36;50.87
43818;BME280;29868;47.360;18.984;2022-09-09T11:23:53;100135.97;;;27.23;49.05
43818;BME280;29868;47.360;18.984;2022-09-09T11:27:18;100131.66;;;27.05;50.14
43818;BME280;29868;47.360;18.984;2022-09-09T11:40:24;100125.97;;;27.12;46.95
43818;BME280;29868;47.360;18.984;2022-09-09T11:43:08;100125.47;;;26.88;47.12
43818;BME280;29868;47.360;18.984;2022-09-09T11:45:35;100120.16;;;26.88;50.16
43818;BME280;29868;47.360;18.984;2022-09-09T11:48:03;100121.69;;;26.77;50.09
43818;BME280;29868;47.360;18.984;2022-09-09T11:50:34;100122.91;;;27.03;46.17
43818;BME280;29868;47.360;18.984;2022-09-09T11:55:39;100123.06;;;27.31;47.84
43818;BME280;29868;47.360;18.984;2022-09-09T12:00:46;100115.19;;;27.14;46.98
43818;BME280;29868;47.360;18.984;2022-09-09T12:06:12;100117.31;;;27.23;46.05
43818;BME280;29868;47.360;18.984;2022-09-09T12:08:41;100129.47;;;27.29;46.81
43818;BME280;29868;47.360;18.984;2022-09-09T12:11:07;100142.25;;;27.84;47.17
43818;BME280;29868;47.360;18.984;2022-09-09T12:13:32;100138.03;;;28.10;44.45
43818;BME280;29868;47.360;18.984;2022-09-09T12:16:01;100126.19;;;28.14;42.63
43818;BME280;29868;47.360;18.984;2022-09-09T12:18:35;100127.25;;;28.26;42.20
43818;BME280;29868;47.360;18.984;2022-09-09T12:23:43;100123.50;;;27.08;45.74
43818;BME280;29868;47.360;18.984;2022-09-09T12:31:40;100096.59;;;26.81;46.04
43818;BME280;29868;47.360;18.984;2022-09-09T12:34:19;100088.53;;;27.14;46.34
43818;BME280;29868;47.360;18.984;2022-09-09T12:36:58;100099.50;;;26.92;45.76
43818;BME280;29868;47.360;18.984;2022-09-09T12:39:36;100091.78;;;27.19;46.36
43818;BME280;29868;47.360;18.984;2022-09-09T12:42:03;100100.53;;;27.37;45.83
43818;BME280;29868;47.360;18.984;2022-09-09T12:44:30;100100.44;;;27.69;46.01
43818;BME280;29868;47.360;18.984;2022-09-09T12:46:58;100088.47;;;27.76;44.32
43818;BME280;29868;47.360;18.984;2022-09-09T12:49:31;100087.31;;;27.50;45.73
43818;BME280;29868;47.360;18.984;2022-09-09T12:52:03;100089.97;;;27.35;45.90
43818;BME280;29868;47.360;18.984;2022-09-09T12:54:31;100086.91;;;27.41;46.68
43818;BME280;29868;47.360;18.984;2022-09-09T12:56:57;100083.38;;;27.11;45.51
43818;BME280;29868;47.360;18.984;2022-09-09T12:59:25;100074.16;;;27.16;46.23
43818;BME280;29868;47.360;18.984;2022-09-09T13:01:58;100065.84;;;27.67;43.21
43818;BME280;29868;47.360;18.984;2022-09-09T13:04:24;100057.97;;;27.80;41.45
43818;BME280;29868;47.360;18.984;2022-09-09T13:06:49;100053.03;;;27.88;42.76
43818;BME280;29868;47.360;18.984;2022-09-09T13:09:15;100048.38;;;27.92;43.72
43818;BME280;29868;47.360;18.984;2022-09-09T13:11:42;100053.13;;;28.29;42.39
43818;BME280;29868;47.360;18.984;2022-09-09T13:14:16;100052.50;;;28.11;41.58
43818;BME280;29868;47.360;18.984;2022-09-09T13:16:55;100046.09;;;28.57;42.76
43818;BME280;29868;47.360;18.984;2022-09-09T13:19:21;100049.69;;;28.70;39.83
43818;BME280;29868;47.360;18.984;2022-09-09T13:21:47;100051.66;;;28.11;40.93
43818;BME280;29868;47.360;18.984;2022-09-09T13:24:31;100056.38;;;27.92;39.69
43818;BME280;29868;47.360;18.984;2022-09-09T13:27:02;100046.84;;;27.87;39.78
43818;BME280;29868;47.360;18.984;2022-09-09T13:29:29;100042.97;;;27.63;41.87
43818;BME280;29868;47.360;18.984;2022-09-09T13:32:07;100050.47;;;27.86;41.89
43818;BME280;29868;47.360;18.984;2022-09-09T13:34:38;100041.97;;;27.50;42.86
43818;BME280;29868;47.360;18.984;2022-09-09T13:37:05;100042.34;;;27.44;40.58
43818;BME280;29868;47.360;18.984;2022-09-09T13:39:36;100041.72;;;27.24;42.43
43818;BME280;29868;47.360;18.984;2022-09-09T13:42:03;100039.63;;;27.29;43.29
43818;BME280;29868;47.360;18.984;2022-09-09T13:44:37;100037.19;;;27.40;42.85
43818;BME280;29868;47.360;18.984;2022-09-09T13:47:06;100031.81;;;28.01;43.55
43818;BME280;29868;47.360;18.984;2022-09-09T13:49:32;100036.56;;;28.10;40.49
43818;BME280;29868;47.360;18.984;2022-09-09T13:54:31;100020.91;;;27.75;42.01
43818;BME280;29868;47.360;18.984;2022-09-09T13:56:56;100008.94;;;27.22;43.59
43818;BME280;29868;47.360;18.984;2022-09-09T13:59:22;100013.94;;;27.28;44.90
43818;BME280;29868;47.360;18.984;2022-09-09T14:01:49;100015.50;;;27.47;46.48
43818;BME280;29868;47.360;18.984;2022-09-09T14:04:17;100012.06;;;26.99;45.50
43818;BME280;29868;47.360;18.984;2022-09-09T14:06:46;100012.88;;;26.69;46.88
43818;BME280;29868;47.360;18.984;2022-09-09T14:09:14;100001.63;;;26.64;47.41
43818;BME280;29868;47.360;18.984;2022-09-09T14:11:40;100004.63;;;26.58;47.09
43818;BME280;29868;47.360;18.984;2022-09-09T14:14:06;99998.19;;;26.62;47.11
43818;BME280;29868;47.360;18.984;2022-09-09T14:16:31;99998.50;;;26.87;45.47
43818;BME280;29868;47.360;18.984;2022-09-09T14:18:57;100009.75;;;26.92;46.46
43818;BME280;29868;47.360;18.984;2022-09-09T14:21:24;100009.13;;;27.19;43.95
43818;BME280;29868;47.360;18.984;2022-09-09T14:23:49;100001.03;;;27.51;43.69
43818;BME280;29868;47.360;18.984;2022-09-09T14:26:15;99990.16;;;27.39;43.01
43818;BME280;29868;47.360;18.984;2022-09-09T14:28:40;99988.44;;;27.53;43.41
43818;BME280;29868;47.360;18.984;2022-09-09T14:31:06;99991.59;;;27.59;42.29
43818;BME280;29868;47.360;18.984;2022-09-09T14:33:32;99998.53;;;27.48;43.25
43818;BME280;29868;47.360;18.984;2022-09-09T14:36:02;99993.56;;;27.41;44.60
43818;BME280;29868;47.360;18.984;2022-09-09T14:38:33;99988.16;;;27.43;42.55
43818;BME280;29868;47.360;18.984;2022-09-09T14:40:59;99984.16;;;27.64;43.85
43818;BME280;29868;47.360;18.984;2022-09-09T14:43:25;99997.22;;;27.55;42.85
43818;BME280;29868;47.360;18.984;2022-09-09T14:45:52;99996.41;;;27.38;43.23
43818;BME280;29868;47.360;18.984;2022-09-09T14:48:17;99992.25;;;27.19;43.95
43818;BME280;29868;47.360;18.984;2022-09-09T14:50:43;99993.41;;;26.99;44.20
43818;BME280;29868;47.360;18.984;2022-09-09T14:53:09;99985.34;;;26.84;44.94
43818;BME280;29868;47.360;18.984;2022-09-09T14:55:36;99995.16;;;26.84;44.42